Terminal Aerodrome Forecast
Issued by NWS

Home | Current Version | Previous Version | Text Only | Print | Product List | Glossary On
Versions: 1 2 3 4 5 6 7 8 9 10 11 12
000
FTUS44 KBMX 281729
TAFTOI
TAF
KTOI 281729Z 2818/2918 10008KT P6SM SCT060
     FM282200 09008KT P6SM VCTS BKN040CB
     FM290100 00000KT P6SM BKN250=

USA.gov is the U.S. government's official web portal to all federal, state and local government web resources and services.